Time;durP1;ratioP1;P1;durP2;ratioP2;P2;SDS_P1;SDS_P2;PMS_P1;PMS_P2;Temp;Humidity;BMP_temperature;BMP_pressure;BME280_temperature;BME280_humidity;BME280_pressure;Samples;Min_cycle;Max_cycle;Signal;HPM_P1;HPM_P2
2023/03/16 00:01:07;;;;;;;2.65;1.35;;;14.70;62.50;;;;;;10442125;28;20099;-57
2023/03/16 00:06:08;;;;;;;2.15;1.33;;;14.70;62.40;;;;;;10440242;28;20863;-57
2023/03/16 00:11:08;;;;;;;1.90;1.25;;;14.80;62.50;;;;;;10440705;28;20048;-57
2023/03/16 00:16:15;;;;;;;2.45;1.48;;;14.70;62.40;;;;;;10441825;28;20217;-57
2023/03/16 00:27:32;;;;;;;2.40;1.13;;;14.70;62.50;;;;;;10434140;28;20021;-57
2023/03/16 00:32:35;;;;;;;1.85;1.20;;;14.70;62.40;;;;;;10444318;28;20041;-56
2023/03/16 00:37:38;;;;;;;2.05;1.40;;;14.70;62.50;;;;;;10448115;28;20076;-56
2023/03/16 00:42:38;;;;;;;1.55;1.17;;;14.70;62.40;;;;;;10449196;28;20261;-57
2023/03/16 00:47:41;;;;;;;2.17;1.25;;;14.70;62.40;;;;;;10449133;28;20048;-56
2023/03/16 00:52:41;;;;;;;1.85;1.40;;;14.70;62.40;;;;;;10449356;28;20021;-56
2023/03/16 00:57:42;;;;;;;2.38;1.20;;;14.60;62.30;;;;;;10447395;28;20025;-57
2023/03/16 01:02:44;;;;;;;1.55;1.08;;;14.60;62.30;;;;;;10448571;28;20112;-57
2023/03/16 01:07:44;;;;;;;1.65;1.20;;;14.60;62.30;;;;;;10430073;28;20033;-56
2023/03/16 01:12:45;;;;;;;2.05;1.30;;;14.60;62.30;;;;;;10446216;28;20124;-57
2023/03/16 01:17:46;;;;;;;1.95;1.20;;;14.60;62.30;;;;;;10447773;28;20560;-56
2023/03/16 01:22:47;;;;;;;2.75;1.98;;;14.60;62.20;;;;;;10429121;28;20064;-56
2023/03/16 01:27:47;;;;;;;2.33;1.70;;;14.60;62.20;;;;;;10446144;28;20017;-56
2023/03/16 01:32:48;;;;;;;2.65;1.48;;;14.60;62.20;;;;;;10445681;28;20023;-56
2023/03/16 01:37:49;;;;;;;2.42;1.10;;;14.60;62.20;;;;;;10428783;28;20819;-56
2023/03/16 01:43:01;;;;;;;2.38;1.70;;;14.60;62.30;;;;;;10461097;28;20483;-56
2023/03/16 01:48:03;;;;;;;2.33;1.35;;;14.60;68.50;;;;;;10445362;28;20442;-57
2023/03/16 01:53:03;;;;;;;2.10;1.23;;;14.80;68.10;;;;;;10445191;28;20542;-55
2023/03/16 01:58:04;;;;;;;4.22;1.38;;;14.80;66.00;;;;;;10434236;28;20013;-56
2023/03/16 02:03:13;;;;;;;2.03;1.30;;;14.80;65.70;;;;;;10445116;28;20037;-57
2023/03/16 02:08:15;;;;;;;2.35;1.33;;;14.80;65.30;;;;;;10444212;28;20094;-57
2023/03/16 02:13:16;;;;;;;2.38;1.23;;;14.80;65.80;;;;;;10443636;28;20187;-56
2023/03/16 02:18:17;;;;;;;1.77;1.20;;;14.80;65.20;;;;;;10445075;28;20028;-56
2023/03/16 02:23:19;;;;;;;1.83;1.42;;;14.80;65.10;;;;;;10443440;28;20427;-57
2023/03/16 02:29:12;;;;;;;3.45;0.98;;;14.70;64.90;;;;;;10444126;28;20119;-56
2023/03/16 02:34:15;;;;;;;2.80;1.25;;;14.70;64.80;;;;;;10445471;28;20381;-56
2023/03/16 02:39:17;;;;;;;2.38;1.45;;;14.70;64.70;;;;;;10443836;28;20065;-57
2023/03/16 02:44:32;;;;;;;2.00;1.40;;;14.70;64.60;;;;;;10444803;28;20009;-56
2023/03/16 02:49:37;;;;;;;2.38;1.30;;;14.70;64.60;;;;;;10442956;28;20484;-57
2023/03/16 02:54:38;;;;;;;1.88;1.15;;;14.60;64.30;;;;;;10442155;28;20112;-56
2023/03/16 02:59:39;;;;;;;2.22;0.93;;;14.60;64.30;;;;;;10442411;28;20037;-57
2023/03/16 03:04:40;;;;;;;1.95;1.25;;;14.60;64.50;;;;;;10444088;28;20088;-56
2023/03/16 03:09:41;;;;;;;1.52;1.10;;;14.60;64.10;;;;;;10418981;28;20040;-56
2023/03/16 03:14:43;;;;;;;1.55;1.10;;;14.60;64.00;;;;;;10458355;28;20025;-57
2023/03/16 03:19:43;;;;;;;2.00;1.40;;;14.60;63.90;;;;;;10441528;28;20135;-57
2023/03/16 03:24:44;;;;;;;1.75;1.27;;;14.60;63.80;;;;;;10425271;28;20513;-56
2023/03/16 03:29:45;;;;;;;1.13;0.85;;;14.50;63.60;;;;;;10442669;28;20052;-55
2023/03/16 03:34:46;;;;;;;2.15;1.30;;;14.60;63.60;;;;;;10442735;28;20123;-57
2023/03/16 03:39:47;;;;;;;1.80;1.30;;;14.50;63.50;;;;;;10442127;28;20061;-56
2023/03/16 03:44:47;;;;;;;1.80;1.30;;;14.60;63.70;;;;;;10441545;28;20037;-57
2023/03/16 03:49:48;;;;;;;2.17;1.15;;;14.70;63.00;;;;;;10440967;28;20053;-57
2023/03/16 03:54:49;;;;;;;1.25;0.90;;;14.90;61.90;;;;;;10441621;28;20041;-55
2023/03/16 03:59:49;;;;;;;2.00;1.10;;;15.30;61.00;;;;;;10440406;28;20151;-57
2023/03/16 04:04:50;;;;;;;3.28;1.10;;;15.50;60.20;;;;;;10440908;28;20155;-56
2023/03/16 04:09:51;;;;;;;2.22;1.15;;;15.70;59.60;;;;;;10443610;28;20476;-57
2023/03/16 04:14:52;;;;;;;0.98;0.77;;;15.90;59.00;;;;;;10446492;28;20500;-55
2023/03/16 04:19:52;;;;;;;1.52;1.00;;;16.00;58.40;;;;;;10450100;28;20016;-56
2023/03/16 04:24:53;;;;;;;1.40;0.80;;;16.20;58.00;;;;;;10450880;28;20055;-56
2023/03/16 04:29:57;;;;;;;1.95;1.00;;;16.30;57.40;;;;;;10448477;28;20117;-56
2023/03/16 04:34:58;;;;;;;1.50;0.85;;;16.40;57.80;;;;;;10450021;28;20496;-56
2023/03/16 04:39:58;;;;;;;2.10;0.90;;;16.60;57.00;;;;;;10449565;28;20029;-56
2023/03/16 04:44:59;;;;;;;2.00;0.90;;;16.60;56.80;;;;;;10450011;28;20084;-56
2023/03/16 04:50:01;;;;;;;1.88;1.05;;;16.60;56.70;;;;;;10430619;28;20067;-56
2023/03/16 04:55:02;;;;;;;1.75;0.80;;;16.60;56.60;;;;;;10448065;28;20021;-56
2023/03/16 05:00:18;;;;;;;1.85;1.00;;;16.70;56.50;;;;;;10447652;28;20043;-57
2023/03/16 05:05:20;;;;;;;1.25;0.90;;;16.70;56.30;;;;;;10447272;28;20032;-56
2023/03/16 05:10:21;;;;;;;1.38;0.75;;;16.80;56.10;;;;;;10445354;28;20551;-57
2023/03/16 05:15:22;;;;;;;2.58;0.80;;;16.80;56.10;;;;;;10447923;28;20108;-58
2023/03/16 05:20:23;;;;;;;1.55;1.00;;;16.80;56.10;;;;;;10445169;28;20480;-57
2023/03/16 05:25:24;;;;;;;1.38;0.73;;;16.80;56.10;;;;;;10447994;28;20021;-56
2023/03/16 05:30:25;;;;;;;1.15;0.65;;;16.80;56.00;;;;;;10447114;28;20100;-57
2023/03/16 05:35:26;;;;;;;2.00;0.90;;;16.70;56.20;;;;;;10447190;28;20029;-57
2023/03/16 05:40:27;;;;;;;1.33;0.90;;;16.70;56.40;;;;;;10445586;28;20025;-55
2023/03/16 05:45:28;;;;;;;1.20;0.70;;;16.60;56.70;;;;;;10445658;28;20022;-57
2023/03/16 05:50:29;;;;;;;1.67;0.70;;;16.50;56.80;;;;;;10446229;28;20113;-56
2023/03/16 05:55:29;;;;;;;3.47;0.88;;;16.50;56.90;;;;;;10441867;28;20029;-56
2023/03/16 06:00:30;;;;;;;3.15;0.80;;;16.40;57.60;;;;;;10445553;28;20025;-56
2023/03/16 06:05:32;;;;;;;5.28;1.20;;;16.50;57.90;;;;;;10439977;28;20490;-56
2023/03/16 06:10:33;;;;;;;5.15;0.80;;;16.60;59.10;;;;;;10433139;28;20398;-57
2023/03/16 06:15:33;;;;;;;5.90;1.33;;;16.60;59.50;;;;;;10459291;28;20024;-57
2023/03/16 06:20:34;;;;;;;8.90;1.65;;;16.60;59.90;;;;;;10447596;28;20612;-55
2023/03/16 06:25:35;;;;;;;10.60;1.27;;;16.60;59.80;;;;;;10445394;28;20111;-57
2023/03/16 06:30:35;;;;;;;9.05;1.33;;;16.50;60.20;;;;;;10444344;28;20083;-57
2023/03/16 06:35:36;;;;;;;8.80;2.10;;;16.50;60.00;;;;;;10444858;28;20099;-57
2023/03/16 06:40:37;;;;;;;7.05;1.52;;;16.50;60.40;;;;;;10442811;28;20040;-56
2023/03/16 06:45:37;;;;;;;10.65;2.05;;;16.30;60.40;;;;;;10445040;28;20139;-56
2023/03/16 06:50:38;;;;;;;16.83;2.00;;;16.20;60.50;;;;;;10445065;28;20115;-56
2023/03/16 06:55:40;;;;;;;8.25;1.45;;;16.10;61.00;;;;;;10445776;28;20116;-57
2023/03/16 07:00:41;;;;;;;18.52;1.75;;;16.20;60.30;;;;;;10444136;28;20063;-57
2023/03/16 07:05:42;;;;;;;5.82;1.83;;;16.30;60.00;;;;;;10444035;28;20017;-57
2023/03/16 07:10:43;;;;;;;11.60;2.53;;;16.20;60.10;;;;;;10443530;28;20136;-56
2023/03/16 07:15:43;;;;;;;12.18;2.75;;;16.10;61.10;;;;;;10460278;28;20085;-56
2023/03/16 07:20:44;;;;;;;13.88;3.25;;;16.00;61.00;;;;;;10442819;28;20069;-57
2023/03/16 07:25:45;;;;;;;10.95;1.55;;;16.00;60.70;;;;;;10443557;28;20018;-57
2023/03/16 07:30:47;;;;;;;7.95;1.98;;;16.20;60.10;;;;;;10442674;28;20036;-57
2023/03/16 07:35:47;;;;;;;6.00;1.77;;;16.00;60.30;;;;;;10442028;28;20055;-58
2023/03/16 07:40:48;;;;;;;16.00;2.70;;;16.00;60.30;;;;;;10441332;28;20111;-57
2023/03/16 07:45:50;;;;;;;8.70;1.27;;;16.10;59.80;;;;;;10441253;28;20468;-57
2023/03/16 07:50:51;;;;;;;8.10;3.00;;;16.00;59.80;;;;;;10439267;28;20487;-55
2023/03/16 07:55:52;;;;;;;7.95;1.10;;;16.00;60.00;;;;;;10439815;28;20056;-56
2023/03/16 08:00:58;;;;;;;3.67;1.25;;;16.00;59.60;;;;;;10440946;28;20029;-58
2023/03/16 08:05:58;;;;;;;5.03;1.05;;;16.10;59.60;;;;;;10440305;28;20032;-57
2023/03/16 08:10:59;;;;;;;3.75;1.20;;;15.90;59.70;;;;;;10412856;28;20054;-57
2023/03/16 08:16:00;;;;;;;4.13;1.00;;;15.90;59.70;;;;;;10458839;28;20422;-57
2023/03/16 08:21:02;;;;;;;5.03;1.08;;;16.10;59.20;;;;;;10443764;28;20405;-56
2023/03/16 08:26:07;;;;;;;3.53;1.00;;;16.00;59.30;;;;;;10442179;28;20017;-57
2023/03/16 08:31:08;;;;;;;5.15;1.70;;;16.00;59.20;;;;;;10442786;28;20078;-57
2023/03/16 08:36:14;;;;;;;2.28;0.95;;;16.10;59.00;;;;;;10443207;28;20716;-58
2023/03/16 08:41:16;;;;;;;1.83;0.98;;;16.00;59.20;;;;;;10425526;28;20423;-56
2023/03/16 08:46:16;;;;;;;3.17;1.20;;;15.90;59.20;;;;;;10443150;28;20014;-57
2023/03/16 08:51:18;;;;;;;3.35;1.30;;;16.00;58.90;;;;;;10441834;28;20304;-56
2023/03/16 08:56:18;;;;;;;3.15;1.20;;;16.10;58.80;;;;;;10448536;28;20602;-56
2023/03/16 09:01:19;;;;;;;3.42;1.48;;;16.10;58.80;;;;;;10432934;28;20086;-57
2023/03/16 09:06:21;;;;;;;5.32;1.55;;;16.00;58.90;;;;;;10450249;28;20041;-57
2023/03/16 09:11:22;;;;;;;1.48;0.80;;;15.90;59.10;;;;;;10449668;28;20067;-57
2023/03/16 09:16:24;;;;;;;3.00;1.20;;;15.90;59.40;;;;;;10448395;28;20104;-57
2023/03/16 09:21:26;;;;;;;1.33;0.75;;;15.70;59.70;;;;;;10448401;28;20063;-57
2023/03/16 09:26:27;;;;;;;2.33;0.98;;;15.70;59.90;;;;;;10448206;28;20099;-56
2023/03/16 09:31:28;;;;;;;2.42;1.20;;;15.70;59.80;;;;;;10448128;28;20252;-56
2023/03/16 09:36:29;;;;;;;2.40;1.00;;;15.80;59.60;;;;;;10447511;28;20448;-56
2023/03/16 09:41:46;;;;;;;2.20;0.85;;;15.80;59.50;;;;;;10447622;28;20036;-57
2023/03/16 09:46:49;;;;;;;2.53;1.00;;;15.80;59.60;;;;;;10448191;28;20017;-57
2023/03/16 09:52:02;;;;;;;2.00;1.30;;;15.80;59.50;;;;;;10448334;28;20043;-57
2023/03/16 09:57:04;;;;;;;2.42;0.90;;;15.80;59.30;;;;;;10447155;28;20018;-57
2023/03/16 10:02:22;;;;;;;4.10;0.90;;;15.80;59.50;;;;;;10446315;28;20131;-58
2023/03/16 10:07:51;;;;;;;3.92;1.10;;;15.80;59.30;;;;;;10445385;28;20041;-56
2023/03/16 10:12:53;;;;;;;2.78;0.82;;;15.90;59.10;;;;;;10434265;28;20021;-56
2023/03/16 10:18:17;;;;;;;1.13;1.00;;;15.90;59.00;;;;;;10445977;28;20079;-57
2023/03/16 10:23:23;;;;;;;1.55;0.63;;;15.90;59.00;;;;;;10445731;28;20065;-58
2023/03/16 10:28:26;;;;;;;2.58;1.10;;;15.90;58.70;;;;;;10445629;28;20013;-56
2023/03/16 10:33:35;;;;;;;1.48;0.98;;;15.90;58.90;;;;;;10445997;28;20017;-57
2023/03/16 10:38:54;;;;;;;1.60;0.77;;;15.80;59.60;;;;;;10444841;28;20031;-57
2023/03/16 10:44:06;;;;;;;1.95;0.93;;;15.70;60.00;;;;;;10445224;28;20052;-56
2023/03/16 10:49:24;;;;;;;2.88;0.73;;;15.70;60.50;;;;;;10429239;28;20013;-58
2023/03/16 10:54:39;;;;;;;2.40;0.70;;;15.70;60.60;;;;;;10444483;28;20040;-59
2023/03/16 10:59:47;;;;;;;2.00;0.77;;;15.60;60.80;;;;;;10444378;28;20059;-57
2023/03/16 11:04:49;;;;;;;2.05;1.08;;;15.60;60.70;;;;;;10444052;28;20013;-57
2023/03/16 11:09:51;;;;;;;1.42;0.65;;;15.60;60.80;;;;;;10440780;28;20083;-57
2023/03/16 11:14:53;;;;;;;2.28;1.27;;;15.50;60.70;;;;;;10443678;28;20032;-56
2023/03/16 11:19:59;;;;;;;1.33;0.60;;;15.60;60.80;;;;;;10443520;28;20044;-56
2023/03/16 11:25:06;;;;;;;1.27;0.70;;;15.50;60.80;;;;;;10444881;28;20024;-57
2023/03/16 11:30:16;;;;;;;1.63;1.05;;;15.50;60.80;;;;;;10443659;28;20036;-57
2023/03/16 11:35:19;;;;;;;1.88;0.60;;;15.50;60.70;;;;;;10444006;28;20055;-57
2023/03/16 11:40:59;;;;;;;1.95;0.90;;;15.50;60.70;;;;;;10444444;28;20033;-57
2023/03/16 11:46:22;;;;;;;2.33;1.17;;;15.40;60.80;;;;;;10443197;28;20037;-57
2023/03/16 11:51:56;;;;;;;1.80;1.08;;;15.40;60.90;;;;;;10427899;28;20029;-57
2023/03/16 11:57:06;;;;;;;2.17;0.80;;;15.30;60.90;;;;;;10442971;28;20056;-57
2023/03/16 12:02:58;;;;;;;1.58;0.73;;;15.40;61.00;;;;;;10426841;28;20049;-56
2023/03/16 12:08:31;;;;;;;1.90;0.82;;;15.30;61.00;;;;;;10390094;28;20080;-57
2023/03/16 12:14:00;;;;;;;1.88;1.00;;;15.30;60.90;;;;;;10442572;28;20025;-56
2023/03/16 12:19:05;;;;;;;1.50;0.80;;;15.30;60.90;;;;;;10441861;28;20465;-57
2023/03/16 12:24:15;;;;;;;1.30;0.70;;;15.40;60.90;;;;;;10442180;28;20492;-57
2023/03/16 12:29:34;;;;;;;2.35;0.90;;;15.40;60.80;;;;;;10446354;28;20337;-57
2023/03/16 12:35:23;;;;;;;2.88;0.80;;;15.40;60.90;;;;;;10451990;28;20021;-58
2023/03/16 12:40:52;;;;;;;2.20;0.90;;;15.40;61.00;;;;;;10434802;28;20041;-56
2023/03/16 12:46:12;;;;;;;2.13;1.25;;;15.40;61.00;;;;;;10451951;28;20017;-57
2023/03/16 12:51:13;;;;;;;;;;;15.50;60.90;;;;;;10452172;28;20021;-58
2023/03/16 12:56:28;;;;;;;1.27;0.80;;;15.60;60.80;;;;;;10432906;28;20275;-57
2023/03/16 13:01:38;;;;;;;1.55;0.63;;;15.60;60.70;;;;;;10448944;28;20051;-57
2023/03/16 13:06:47;;;;;;;1.42;0.80;;;15.60;60.50;;;;;;10432723;28;20018;-56
2023/03/16 13:11:49;;;;;;;1.55;0.70;;;15.70;60.50;;;;;;10434956;28;20073;-56
2023/03/16 13:16:53;;;;;;;1.63;1.00;;;15.70;60.50;;;;;;10448464;28;20487;-57
2023/03/16 13:22:16;;;;;;;1.45;0.65;;;15.70;60.40;;;;;;10448109;28;20033;-58
2023/03/16 13:27:28;;;;;;;2.70;1.33;;;15.70;60.50;;;;;;10448322;28;20017;-57
2023/03/16 13:32:32;;;;;;;0.90;0.60;;;15.70;60.50;;;;;;10431487;28;20225;-57
2023/03/16 13:37:33;;;;;;;1.15;0.80;;;15.70;60.50;;;;;;10449661;28;20555;-57
2023/03/16 13:42:33;;;;;;;1.13;0.85;;;15.70;60.50;;;;;;10447015;28;20122;-57
2023/03/16 13:47:34;;;;;;;1.88;0.50;;;15.70;60.50;;;;;;10448461;28;20056;-56
2023/03/16 13:52:35;;;;;;;1.98;0.70;;;15.80;60.60;;;;;;10448349;28;20018;-57
2023/03/16 13:57:39;;;;;;;1.60;0.50;;;15.80;60.60;;;;;;10447862;28;20025;-56
2023/03/16 14:02:42;;;;;;;1.50;0.60;;;15.70;60.50;;;;;;10430421;28;20048;-56
2023/03/16 14:07:47;;;;;;;1.27;0.57;;;15.80;60.60;;;;;;10446345;28;20051;-58
2023/03/16 14:12:53;;;;;;;1.95;1.02;;;15.80;60.60;;;;;;10434417;28;20032;-57
2023/03/16 14:18:15;;;;;;;1.08;0.70;;;15.70;60.50;;;;;;10446174;28;20035;-56
2023/03/16 14:23:23;;;;;;;1.35;0.50;;;15.70;60.50;;;;;;10446051;28;20036;-57
2023/03/16 14:28:31;;;;;;;1.27;0.60;;;15.80;60.70;;;;;;10429936;28;20709;-56
2023/03/16 14:33:41;;;;;;;1.17;0.77;;;15.80;60.60;;;;;;10445545;28;20028;-56
2023/03/16 14:38:44;;;;;;;0.60;0.50;;;15.80;60.70;;;;;;10444955;28;20487;-57
2023/03/16 14:43:55;;;;;;;1.33;0.70;;;15.80;60.70;;;;;;10444936;28;20369;-57
2023/03/16 14:49:16;;;;;;;1.13;0.68;;;15.80;60.80;;;;;;10444598;28;20503;-57
2023/03/16 14:54:22;;;;;;;1.98;0.60;;;15.80;60.70;;;;;;10444151;28;20451;-57
2023/03/16 14:59:23;;;;;;;1.60;0.68;;;15.80;60.80;;;;;;10427933;28;20017;-57
2023/03/16 15:04:30;;;;;;;1.40;0.55;;;15.80;60.70;;;;;;10427359;28;20021;-57
2023/03/16 15:09:38;;;;;;;2.30;0.70;;;15.80;60.50;;;;;;10443111;28;20048;-58
2023/03/16 15:19:58;;;;;;;1.23;0.53;;;15.80;60.60;;;;;;10445673;28;20071;-56
2023/03/16 15:25:22;;;;;;;1.10;0.57;;;15.80;60.60;;;;;;10443474;28;20021;-57
2023/03/16 15:30:25;;;;;;;1.25;0.60;;;15.80;60.70;;;;;;10443443;28;20016;-58
2023/03/16 15:35:26;;;;;;;1.27;0.70;;;15.70;60.70;;;;;;10444029;28;20524;-56
2023/03/16 15:40:28;;;;;;;1.73;0.88;;;15.70;60.80;;;;;;10442806;28;20025;-57
2023/03/16 15:45:29;;;;;;;0.73;0.50;;;15.80;60.80;;;;;;10443127;28;20047;-56
2023/03/16 15:50:30;;;;;;;1.50;0.50;;;15.80;60.70;;;;;;10438364;28;20052;-57
2023/03/16 15:55:44;;;;;;;1.58;0.82;;;15.70;60.70;;;;;;10433991;28;20033;-55
2023/03/16 16:00:45;;;;;;;1.05;0.60;;;15.70;60.60;;;;;;10442319;28;20087;-57
2023/03/16 16:05:47;;;;;;;2.40;0.80;;;15.80;60.70;;;;;;10450891;28;20017;-57
2023/03/16 16:10:49;;;;;;;0.73;0.50;;;15.80;60.80;;;;;;10450872;28;20428;-56
2023/03/16 16:15:50;;;;;;;1.52;0.70;;;15.70;60.70;;;;;;10451988;28;20104;-58
2023/03/16 16:20:50;;;;;;;0.70;0.50;;;15.70;60.70;;;;;;10451585;28;20029;-58
2023/03/16 16:25:55;;;;;;;1.17;0.68;;;15.70;60.80;;;;;;10433749;28;20020;-56
2023/03/16 16:30:58;;;;;;;0.80;0.45;;;15.70;60.80;;;;;;10450397;28;20032;-57
2023/03/16 16:36:06;;;;;;;1.35;0.55;;;15.70;60.80;;;;;;10429142;28;20019;-58
2023/03/16 16:41:08;;;;;;;1.73;0.60;;;15.70;60.50;;;;;;10451465;28;20140;-56
2023/03/16 16:46:18;;;;;;;0.80;0.50;;;15.70;60.70;;;;;;10441403;28;20040;-55
2023/03/16 16:51:26;;;;;;;1.02;0.57;;;15.60;60.80;;;;;;10451654;28;20052;-57
2023/03/16 16:56:33;;;;;;;1.35;0.65;;;15.60;60.90;;;;;;10451413;28;20025;-57
2023/03/16 17:01:34;;;;;;;1.23;0.52;;;15.60;61.00;;;;;;10429989;28;20059;-56
2023/03/16 17:06:35;;;;;;;0.88;0.60;;;15.50;61.00;;;;;;10438193;28;20690;-56
2023/03/16 17:11:36;;;;;;;17.00;2.70;;;15.50;61.10;;;;;;10437331;28;20061;-57
2023/03/16 17:16:37;;;;;;;25.55;3.85;;;15.40;61.20;;;;;;10448149;28;20500;-56
2023/03/16 17:21:38;;;;;;;11.68;1.85;;;15.50;61.60;;;;;;10439754;28;20369;-57
2023/03/16 17:26:44;;;;;;;9.35;1.80;;;15.50;61.60;;;;;;10458314;28;20108;-57
2023/03/16 17:31:44;;;;;;;42.20;23.58;;;15.60;61.60;;;;;;10431928;28;20013;-58
2023/03/16 17:36:46;;;;;;;29.70;14.40;;;15.60;64.20;;;;;;10414219;28;20465;-56
2023/03/16 17:42:25;;;;;;;21.38;8.85;;;15.80;63.00;;;;;;10441042;28;20033;-57
2023/03/16 17:47:29;;;;;;;13.48;5.65;;;15.80;62.70;;;;;;10435586;28;20029;-57
2023/03/16 17:52:30;;;;;;;16.80;7.43;;;15.80;61.90;;;;;;10443912;28;20048;-57
2023/03/16 17:57:32;;;;;;;60.65;31.58;;;15.70;61.40;;;;;;10439334;28;20029;-58
2023/03/16 18:02:56;;;;;;;56.22;29.38;;;15.70;61.60;;;;;;10443968;28;20040;-57
2023/03/16 18:08:16;;;;;;;79.07;44.40;;;15.70;61.30;;;;;;10431817;28;20068;-56
2023/03/16 18:13:23;;;;;;;79.28;43.72;;;15.80;61.20;;;;;;10448376;28;20124;-58
2023/03/16 18:18:27;;;;;;;78.68;39.22;;;16.20;60.20;;;;;;10443331;28;20447;-58
2023/03/16 18:23:34;;;;;;;67.70;39.83;;;16.40;59.10;;;;;;10448088;28;20036;-57
2023/03/16 18:28:34;;;;;;;72.07;37.08;;;16.30;59.10;;;;;;10446535;28;20104;-57
2023/03/16 18:33:39;;;;;;;63.60;36.70;;;16.30;59.40;;;;;;10448852;28;20089;-58
2023/03/16 18:38:45;;;;;;;69.93;36.58;;;16.20;59.80;;;;;;10447174;28;20017;-58
2023/03/16 18:43:46;;;;;;;58.67;35.13;;;16.00;60.10;;;;;;10447324;28;20075;-57
2023/03/16 18:48:47;;;;;;;59.13;34.08;;;15.90;60.60;;;;;;10452580;28;20021;-58
2023/03/16 18:53:48;;;;;;;61.35;34.13;;;15.90;60.40;;;;;;10453687;28;20029;-57
2023/03/16 18:58:51;;;;;;;50.88;28.83;;;15.90;60.50;;;;;;10446616;28;20136;-57
2023/03/16 19:03:52;;;;;;;56.92;31.85;;;15.90;60.40;;;;;;10446744;28;20032;-58
2023/03/16 19:08:56;;;;;;;53.28;26.98;;;15.90;61.10;;;;;;10427239;28;20037;-56
2023/03/16 19:13:57;;;;;;;52.97;29.17;;;15.80;60.60;;;;;;10446214;28;20021;-57
2023/03/16 19:18:57;;;;;;;68.82;29.05;;;15.80;60.70;;;;;;10443162;28;20074;-57
2023/03/16 19:24:01;;;;;;;47.85;27.60;;;15.70;60.70;;;;;;10443754;28;20112;-57
2023/03/16 19:29:03;;;;;;;46.83;26.40;;;15.70;60.80;;;;;;10443935;28;20012;-57
2023/03/16 19:34:15;;;;;;;47.13;26.88;;;15.70;60.90;;;;;;10442080;28;20560;-57
2023/03/16 19:39:16;;;;;;;42.53;25.50;;;15.70;61.00;;;;;;10443150;28;20026;-57
2023/03/16 19:44:21;;;;;;;41.33;25.05;;;15.60;61.20;;;;;;10446543;28;20033;-56
2023/03/16 19:49:24;;;;;;;41.88;24.00;;;15.60;61.40;;;;;;10445122;28;20021;-56
2023/03/16 19:54:33;;;;;;;35.65;20.00;;;15.70;61.20;;;;;;10444984;28;20031;-56
2023/03/16 19:59:35;;;;;;;30.20;19.17;;;15.70;61.10;;;;;;10428543;28;20476;-56
2023/03/16 20:04:36;;;;;;;38.63;21.20;;;15.70;61.30;;;;;;10445089;28;20060;-57
2023/03/16 20:09:37;;;;;;;33.47;18.30;;;15.60;61.30;;;;;;10442790;28;20065;-57
2023/03/16 20:14:38;;;;;;;38.08;19.95;;;15.70;61.10;;;;;;10444814;28;20116;-57
2023/03/16 20:19:39;;;;;;;38.92;20.63;;;15.70;60.80;;;;;;10443225;28;20412;-57
2023/03/16 20:24:40;;;;;;;32.97;19.35;;;15.80;60.70;;;;;;10443465;28;20025;-56
2023/03/16 20:29:41;;;;;;;29.75;16.17;;;15.80;60.70;;;;;;10442031;28;20115;-56
2023/03/16 20:34:42;;;;;;;31.98;18.15;;;15.70;60.70;;;;;;10441509;28;20057;-56
2023/03/16 20:39:43;;;;;;;28.92;18.52;;;15.70;60.80;;;;;;10442800;28;20035;-56
2023/03/16 20:44:45;;;;;;;29.67;17.58;;;15.70;60.90;;;;;;10442482;28;20021;-57
2023/03/16 20:49:46;;;;;;;33.30;17.08;;;15.60;61.10;;;;;;10447701;28;20013;-55
2023/03/16 20:54:48;;;;;;;30.90;16.67;;;15.60;61.10;;;;;;10451918;28;20075;-56
2023/03/16 20:59:52;;;;;;;26.55;16.38;;;15.60;61.20;;;;;;10450974;28;20455;-57
2023/03/16 21:04:58;;;;;;;37.13;16.77;;;15.50;61.30;;;;;;10450816;28;20024;-57
2023/03/16 21:09:59;;;;;;;26.00;16.60;;;15.50;61.50;;;;;;10451823;28;20041;-56
2023/03/16 21:15:13;;;;;;;25.52;15.88;;;15.40;61.50;;;;;;10450316;28;20100;-56
2023/03/16 21:20:19;;;;;;;25.15;14.77;;;15.40;61.50;;;;;;10440201;28;20029;-56
2023/03/16 21:25:35;;;;;;;24.83;14.32;;;15.40;61.60;;;;;;10450130;28;20032;-56
2023/03/16 21:30:41;;;;;;;26.38;14.00;;;15.40;61.50;;;;;;10450110;28;20033;-57
2023/03/16 21:35:42;;;;;;;19.63;13.48;;;15.30;61.50;;;;;;10450095;28;20017;-57
2023/03/16 21:40:43;;;;;;;22.17;13.30;;;15.30;61.70;;;;;;10432886;28;20040;-57
2023/03/16 21:45:45;;;;;;;19.90;12.65;;;15.30;61.70;;;;;;10449282;28;20043;-57
2023/03/16 21:50:47;;;;;;;18.80;12.27;;;15.30;61.70;;;;;;10432586;28;20021;-57
2023/03/16 21:55:49;;;;;;;19.27;11.27;;;15.30;61.70;;;;;;10449065;28;20028;-57
2023/03/16 22:00:52;;;;;;;18.17;10.68;;;15.30;61.80;;;;;;10460275;28;20091;-57
2023/03/16 22:05:55;;;;;;;15.98;11.43;;;15.20;61.80;;;;;;10448341;28;20025;-57
2023/03/16 22:10:56;;;;;;;16.73;10.48;;;15.20;61.90;;;;;;10432673;28;20610;-57
2023/03/16 22:15:57;;;;;;;19.05;11.00;;;15.20;62.00;;;;;;10464260;28;20048;-57
2023/03/16 22:21:02;;;;;;;14.65;10.25;;;15.20;62.00;;;;;;10447853;28;20033;-57
2023/03/16 22:26:07;;;;;;;16.25;10.00;;;15.20;61.90;;;;;;10447744;28;20644;-57
2023/03/16 22:31:18;;;;;;;16.70;9.15;;;15.20;61.90;;;;;;10447738;28;20029;-57
2023/03/16 22:36:21;;;;;;;15.02;8.75;;;15.10;61.90;;;;;;10431112;28;20047;-57
2023/03/16 22:41:22;;;;;;;15.82;9.25;;;15.10;61.90;;;;;;10446983;28;20091;-57
2023/03/16 22:46:26;;;;;;;13.32;8.20;;;15.10;62.00;;;;;;10434359;28;20032;-58
2023/03/16 22:51:37;;;;;;;10.02;6.07;;;15.10;61.90;;;;;;10447286;28;20484;-56
2023/03/16 22:56:40;;;;;;;11.98;7.30;;;15.10;62.00;;;;;;10446567;28;20033;-57
2023/03/16 23:01:44;;;;;;;14.52;7.43;;;15.10;62.00;;;;;;10446285;28;20072;-56
2023/03/16 23:06:47;;;;;;;10.60;6.53;;;15.10;61.90;;;;;;10446109;28;20602;-57
2023/03/16 23:11:53;;;;;;;10.93;7.13;;;15.10;62.00;;;;;;10433459;28;20119;-57
2023/03/16 23:16:54;;;;;;;10.77;6.43;;;15.10;62.00;;;;;;10446995;28;20029;-57
2023/03/16 23:22:02;;;;;;;11.75;7.82;;;15.00;62.00;;;;;;10445876;28;20068;-58
2023/03/16 23:27:03;;;;;;;10.70;6.95;;;15.00;62.00;;;;;;10416108;28;20087;-56
2023/03/16 23:32:05;;;;;;;11.05;7.30;;;15.00;62.10;;;;;;10442445;28;20092;-56
2023/03/16 23:37:05;;;;;;;11.95;7.22;;;15.00;62.00;;;;;;10445352;28;20036;-57
2023/03/16 23:42:07;;;;;;;8.32;5.85;;;15.00;62.10;;;;;;10446106;28;20032;-56
2023/03/16 23:47:09;;;;;;;10.32;5.97;;;15.00;62.10;;;;;;10445760;28;20104;-57
2023/03/16 23:52:12;;;;;;;8.57;6.18;;;15.00;62.10;;;;;;10427908;28;20109;-57
2023/03/16 23:57:12;;;;;;;10.07;5.38;;;15.00;62.20;;;;;;10446066;28;20021;-56
